sensor_id;sensor_type;location;lat;lon;timestamp;P1;durP1;ratioP1;P2;durP2;ratioP2
55575;SDS011;41437;45.478;9.116;2022-09-23T00:00:44;11.18;;;6.90;;
55575;SDS011;41437;45.478;9.116;2022-09-23T00:03:50;9.70;;;5.90;;
55575;SDS011;41437;45.478;9.116;2022-09-23T00:06:52;9.82;;;6.10;;
55575;SDS011;41437;45.478;9.116;2022-09-23T00:09:54;10.18;;;5.70;;
55575;SDS011;41437;45.478;9.116;2022-09-23T00:12:57;12.52;;;5.55;;
55575;SDS011;41437;45.478;9.116;2022-09-23T00:16:00;9.32;;;5.38;;
55575;SDS011;41437;45.478;9.116;2022-09-23T00:19:03;9.75;;;5.63;;
55575;SDS011;41437;45.478;9.116;2022-09-23T00:22:06;11.88;;;6.15;;
55575;SDS011;41437;45.478;9.116;2022-09-23T00:25:08;11.00;;;5.57;;
55575;SDS011;41437;45.478;9.116;2022-09-23T00:28:11;10.38;;;5.32;;
55575;SDS011;41437;45.478;9.116;2022-09-23T00:31:14;8.10;;;5.30;;
55575;SDS011;41437;45.478;9.116;2022-09-23T00:37:18;7.95;;;5.40;;
55575;SDS011;41437;45.478;9.116;2022-09-23T00:40:20;7.95;;;5.43;;
55575;SDS011;41437;45.478;9.116;2022-09-23T00:43:36;8.75;;;5.10;;
55575;SDS011;41437;45.478;9.116;2022-09-23T00:46:40;10.48;;;5.32;;
55575;SDS011;41437;45.478;9.116;2022-09-23T00:49:43;9.10;;;5.10;;
55575;SDS011;41437;45.478;9.116;2022-09-23T00:52:46;8.05;;;5.18;;
55575;SDS011;41437;45.478;9.116;2022-09-23T00:55:51;8.68;;;5.13;;
55575;SDS011;41437;45.478;9.116;2022-09-23T00:58:58;9.00;;;4.88;;
55575;SDS011;41437;45.478;9.116;2022-09-23T01:02:01;8.25;;;4.63;;
55575;SDS011;41437;45.478;9.116;2022-09-23T01:05:05;7.85;;;4.50;;
55575;SDS011;41437;45.478;9.116;2022-09-23T01:08:08;7.45;;;4.30;;
55575;SDS011;41437;45.478;9.116;2022-09-23T01:11:16;8.30;;;4.20;;
55575;SDS011;41437;45.478;9.116;2022-09-23T01:14:32;10.07;;;4.30;;
55575;SDS011;41437;45.478;9.116;2022-09-23T01:17:38;5.85;;;3.72;;
55575;SDS011;41437;45.478;9.116;2022-09-23T01:24:42;8.13;;;3.72;;
55575;SDS011;41437;45.478;9.116;2022-09-23T01:27:54;6.15;;;3.80;;
55575;SDS011;41437;45.478;9.116;2022-09-23T01:31:13;5.63;;;3.40;;
55575;SDS011;41437;45.478;9.116;2022-09-23T01:34:23;5.93;;;3.42;;
55575;SDS011;41437;45.478;9.116;2022-09-23T01:37:33;8.82;;;3.83;;
55575;SDS011;41437;45.478;9.116;2022-09-23T01:40:47;6.30;;;3.53;;
55575;SDS011;41437;45.478;9.116;2022-09-23T01:43:56;6.88;;;3.50;;
55575;SDS011;41437;45.478;9.116;2022-09-23T01:47:04;8.32;;;3.55;;
55575;SDS011;41437;45.478;9.116;2022-09-23T01:50:11;5.22;;;3.30;;
55575;SDS011;41437;45.478;9.116;2022-09-23T01:53:36;6.47;;;3.50;;
55575;SDS011;41437;45.478;9.116;2022-09-23T01:56:45;6.57;;;3.10;;
55575;SDS011;41437;45.478;9.116;2022-09-23T01:59:53;7.82;;;3.58;;
55575;SDS011;41437;45.478;9.116;2022-09-23T02:03:01;6.80;;;3.28;;
55575;SDS011;41437;45.478;9.116;2022-09-23T02:06:10;7.25;;;3.55;;
55575;SDS011;41437;45.478;9.116;2022-09-23T02:09:17;6.75;;;3.35;;
55575;SDS011;41437;45.478;9.116;2022-09-23T02:12:23;6.57;;;3.20;;
55575;SDS011;41437;45.478;9.116;2022-09-23T02:15:29;5.78;;;2.95;;
55575;SDS011;41437;45.478;9.116;2022-09-23T02:18:37;5.85;;;2.97;;
55575;SDS011;41437;45.478;9.116;2022-09-23T02:21:45;5.75;;;3.47;;
55575;SDS011;41437;45.478;9.116;2022-09-23T02:24:54;7.57;;;3.58;;
55575;SDS011;41437;45.478;9.116;2022-09-23T02:27:58;7.35;;;3.20;;
55575;SDS011;41437;45.478;9.116;2022-09-23T02:31:13;5.95;;;3.10;;
55575;SDS011;41437;45.478;9.116;2022-09-23T02:34:23;5.22;;;3.35;;
55575;SDS011;41437;45.478;9.116;2022-09-23T02:37:35;9.02;;;3.35;;
55575;SDS011;41437;45.478;9.116;2022-09-23T02:40:45;5.68;;;3.10;;
55575;SDS011;41437;45.478;9.116;2022-09-23T02:43:56;5.38;;;3.30;;
55575;SDS011;41437;45.478;9.116;2022-09-23T02:47:03;5.63;;;3.20;;
55575;SDS011;41437;45.478;9.116;2022-09-23T02:50:07;5.57;;;2.95;;
55575;SDS011;41437;45.478;9.116;2022-09-23T02:56:12;5.20;;;3.20;;
55575;SDS011;41437;45.478;9.116;2022-09-23T02:59:15;6.50;;;2.97;;
55575;SDS011;41437;45.478;9.116;2022-09-23T03:02:36;6.63;;;3.30;;
55575;SDS011;41437;45.478;9.116;2022-09-23T03:05:54;5.80;;;3.10;;
55575;SDS011;41437;45.478;9.116;2022-09-23T03:08:58;7.32;;;3.40;;
55575;SDS011;41437;45.478;9.116;2022-09-23T03:12:09;5.90;;;3.15;;
55575;SDS011;41437;45.478;9.116;2022-09-23T03:15:18;7.30;;;3.10;;
55575;SDS011;41437;45.478;9.116;2022-09-23T03:18:28;5.57;;;2.88;;
55575;SDS011;41437;45.478;9.116;2022-09-23T03:21:36;5.53;;;2.90;;
55575;SDS011;41437;45.478;9.116;2022-09-23T03:24:44;7.53;;;3.25;;
55575;SDS011;41437;45.478;9.116;2022-09-23T03:27:50;7.25;;;3.13;;
55575;SDS011;41437;45.478;9.116;2022-09-23T03:30:56;6.05;;;2.80;;
55575;SDS011;41437;45.478;9.116;2022-09-23T03:34:00;7.32;;;3.10;;
55575;SDS011;41437;45.478;9.116;2022-09-23T03:37:09;6.00;;;3.00;;
55575;SDS011;41437;45.478;9.116;2022-09-23T03:40:15;5.18;;;2.90;;
55575;SDS011;41437;45.478;9.116;2022-09-23T03:43:23;5.75;;;2.72;;
55575;SDS011;41437;45.478;9.116;2022-09-23T03:46:25;5.60;;;3.00;;
55575;SDS011;41437;45.478;9.116;2022-09-23T03:49:29;4.60;;;2.80;;
55575;SDS011;41437;45.478;9.116;2022-09-23T03:52:36;6.95;;;3.20;;
55575;SDS011;41437;45.478;9.116;2022-09-23T03:55:39;5.00;;;2.92;;
55575;SDS011;41437;45.478;9.116;2022-09-23T03:58:41;6.65;;;2.90;;
55575;SDS011;41437;45.478;9.116;2022-09-23T04:01:44;5.15;;;3.08;;
55575;SDS011;41437;45.478;9.116;2022-09-23T04:04:46;5.53;;;2.90;;
55575;SDS011;41437;45.478;9.116;2022-09-23T04:07:49;6.55;;;3.17;;
55575;SDS011;41437;45.478;9.116;2022-09-23T04:10:50;5.07;;;2.87;;
55575;SDS011;41437;45.478;9.116;2022-09-23T04:13:52;5.63;;;3.25;;
55575;SDS011;41437;45.478;9.116;2022-09-23T04:16:55;4.57;;;2.90;;
55575;SDS011;41437;45.478;9.116;2022-09-23T04:19:57;5.43;;;2.90;;
55575;SDS011;41437;45.478;9.116;2022-09-23T04:23:00;5.68;;;3.20;;
55575;SDS011;41437;45.478;9.116;2022-09-23T04:26:02;8.17;;;3.50;;
55575;SDS011;41437;45.478;9.116;2022-09-23T04:29:04;6.35;;;3.28;;
55575;SDS011;41437;45.478;9.116;2022-09-23T04:32:06;5.20;;;3.03;;
55575;SDS011;41437;45.478;9.116;2022-09-23T04:35:08;7.53;;;3.50;;
55575;SDS011;41437;45.478;9.116;2022-09-23T04:38:11;6.00;;;3.17;;
55575;SDS011;41437;45.478;9.116;2022-09-23T04:41:13;5.50;;;3.40;;
55575;SDS011;41437;45.478;9.116;2022-09-23T04:44:15;4.38;;;2.97;;
55575;SDS011;41437;45.478;9.116;2022-09-23T04:47:16;8.50;;;3.28;;
55575;SDS011;41437;45.478;9.116;2022-09-23T04:50:18;5.78;;;3.10;;
55575;SDS011;41437;45.478;9.116;2022-09-23T04:53:21;5.13;;;3.20;;
55575;SDS011;41437;45.478;9.116;2022-09-23T04:56:26;5.20;;;3.13;;
55575;SDS011;41437;45.478;9.116;2022-09-23T04:59:28;4.75;;;3.20;;
55575;SDS011;41437;45.478;9.116;2022-09-23T05:02:30;5.95;;;3.30;;
55575;SDS011;41437;45.478;9.116;2022-09-23T05:05:33;7.45;;;3.42;;
55575;SDS011;41437;45.478;9.116;2022-09-23T05:08:36;6.68;;;3.22;;
55575;SDS011;41437;45.478;9.116;2022-09-23T05:11:37;5.07;;;3.40;;
55575;SDS011;41437;45.478;9.116;2022-09-23T05:14:39;8.27;;;3.47;;
55575;SDS011;41437;45.478;9.116;2022-09-23T05:17:41;6.13;;;3.40;;
55575;SDS011;41437;45.478;9.116;2022-09-23T05:20:42;9.23;;;3.63;;
55575;SDS011;41437;45.478;9.116;2022-09-23T05:23:47;6.07;;;3.60;;
55575;SDS011;41437;45.478;9.116;2022-09-23T05:26:50;7.78;;;3.58;;
55575;SDS011;41437;45.478;9.116;2022-09-23T05:29:53;6.53;;;3.17;;
55575;SDS011;41437;45.478;9.116;2022-09-23T05:32:54;7.05;;;3.28;;
55575;SDS011;41437;45.478;9.116;2022-09-23T05:35:56;7.07;;;3.58;;
55575;SDS011;41437;45.478;9.116;2022-09-23T05:38:59;6.90;;;3.63;;
55575;SDS011;41437;45.478;9.116;2022-09-23T05:42:01;9.63;;;4.10;;
55575;SDS011;41437;45.478;9.116;2022-09-23T05:45:03;7.35;;;3.40;;
55575;SDS011;41437;45.478;9.116;2022-09-23T05:48:06;10.27;;;3.92;;
55575;SDS011;41437;45.478;9.116;2022-09-23T05:51:08;8.32;;;4.03;;
55575;SDS011;41437;45.478;9.116;2022-09-23T05:54:14;8.90;;;4.30;;
55575;SDS011;41437;45.478;9.116;2022-09-23T05:57:16;8.15;;;3.50;;
55575;SDS011;41437;45.478;9.116;2022-09-23T06:00:18;8.85;;;4.00;;
55575;SDS011;41437;45.478;9.116;2022-09-23T06:03:21;7.43;;;4.05;;
55575;SDS011;41437;45.478;9.116;2022-09-23T06:06:25;7.55;;;4.03;;
55575;SDS011;41437;45.478;9.116;2022-09-23T06:09:30;8.65;;;4.20;;
55575;SDS011;41437;45.478;9.116;2022-09-23T06:12:32;7.28;;;3.80;;
55575;SDS011;41437;45.478;9.116;2022-09-23T06:15:35;6.50;;;3.80;;
55575;SDS011;41437;45.478;9.116;2022-09-23T06:18:37;8.07;;;3.33;;
55575;SDS011;41437;45.478;9.116;2022-09-23T06:21:40;6.88;;;3.70;;
55575;SDS011;41437;45.478;9.116;2022-09-23T06:24:43;8.48;;;3.92;;
55575;SDS011;41437;45.478;9.116;2022-09-23T06:27:50;9.45;;;4.40;;
55575;SDS011;41437;45.478;9.116;2022-09-23T06:30:55;7.35;;;3.58;;
55575;SDS011;41437;45.478;9.116;2022-09-23T06:33:57;8.63;;;3.67;;
55575;SDS011;41437;45.478;9.116;2022-09-23T06:36:58;7.93;;;3.88;;
55575;SDS011;41437;45.478;9.116;2022-09-23T06:40:02;8.85;;;4.10;;
55575;SDS011;41437;45.478;9.116;2022-09-23T06:43:04;10.07;;;4.00;;
55575;SDS011;41437;45.478;9.116;2022-09-23T06:46:06;8.25;;;3.72;;
55575;SDS011;41437;45.478;9.116;2022-09-23T06:49:08;8.47;;;3.87;;
55575;SDS011;41437;45.478;9.116;2022-09-23T06:52:11;8.70;;;4.15;;
55575;SDS011;41437;45.478;9.116;2022-09-23T06:55:15;8.75;;;3.65;;
55575;SDS011;41437;45.478;9.116;2022-09-23T06:58:16;6.23;;;3.50;;
55575;SDS011;41437;45.478;9.116;2022-09-23T07:01:18;8.63;;;3.60;;
55575;SDS011;41437;45.478;9.116;2022-09-23T07:04:21;9.95;;;3.38;;
55575;SDS011;41437;45.478;9.116;2022-09-23T07:07:22;7.15;;;3.75;;
55575;SDS011;41437;45.478;9.116;2022-09-23T07:10:26;10.40;;;3.90;;
55575;SDS011;41437;45.478;9.116;2022-09-23T07:13:30;6.80;;;3.75;;
55575;SDS011;41437;45.478;9.116;2022-09-23T07:16:32;10.32;;;4.75;;
55575;SDS011;41437;45.478;9.116;2022-09-23T07:19:34;9.15;;;4.20;;
55575;SDS011;41437;45.478;9.116;2022-09-23T07:22:35;9.05;;;4.18;;
55575;SDS011;41437;45.478;9.116;2022-09-23T07:25:38;10.88;;;3.88;;
55575;SDS011;41437;45.478;9.116;2022-09-23T07:28:40;9.60;;;3.80;;
55575;SDS011;41437;45.478;9.116;2022-09-23T07:31:41;7.72;;;3.80;;
55575;SDS011;41437;45.478;9.116;2022-09-23T07:34:43;8.48;;;4.00;;
55575;SDS011;41437;45.478;9.116;2022-09-23T07:37:46;6.82;;;3.65;;
55575;SDS011;41437;45.478;9.116;2022-09-23T07:40:51;9.18;;;4.30;;
55575;SDS011;41437;45.478;9.116;2022-09-23T07:43:53;8.85;;;4.60;;
55575;SDS011;41437;45.478;9.116;2022-09-23T07:46:58;9.90;;;4.13;;
55575;SDS011;41437;45.478;9.116;2022-09-23T07:50:00;8.50;;;4.40;;
55575;SDS011;41437;45.478;9.116;2022-09-23T07:53:03;8.65;;;4.45;;
55575;SDS011;41437;45.478;9.116;2022-09-23T07:56:08;10.05;;;4.43;;
55575;SDS011;41437;45.478;9.116;2022-09-23T07:59:11;14.50;;;4.90;;
55575;SDS011;41437;45.478;9.116;2022-09-23T08:02:16;13.25;;;4.80;;
55575;SDS011;41437;45.478;9.116;2022-09-23T08:05:17;9.60;;;4.55;;
55575;SDS011;41437;45.478;9.116;2022-09-23T08:08:19;8.13;;;4.25;;
55575;SDS011;41437;45.478;9.116;2022-09-23T08:11:21;7.57;;;4.43;;
55575;SDS011;41437;45.478;9.116;2022-09-23T08:14:23;8.15;;;4.40;;
55575;SDS011;41437;45.478;9.116;2022-09-23T08:17:26;8.32;;;4.20;;
55575;SDS011;41437;45.478;9.116;2022-09-23T08:20:27;10.63;;;3.95;;
55575;SDS011;41437;45.478;9.116;2022-09-23T08:23:47;11.80;;;4.53;;
55575;SDS011;41437;45.478;9.116;2022-09-23T08:26:51;8.50;;;3.55;;
55575;SDS011;41437;45.478;9.116;2022-09-23T08:29:53;10.27;;;4.38;;
55575;SDS011;41437;45.478;9.116;2022-09-23T08:32:55;9.70;;;3.90;;
55575;SDS011;41437;45.478;9.116;2022-09-23T08:35:58;9.48;;;3.90;;
55575;SDS011;41437;45.478;9.116;2022-09-23T08:42:06;8.40;;;3.95;;
55575;SDS011;41437;45.478;9.116;2022-09-23T08:45:15;10.02;;;3.78;;
55575;SDS011;41437;45.478;9.116;2022-09-23T08:48:21;7.05;;;4.22;;
55575;SDS011;41437;45.478;9.116;2022-09-23T08:51:29;10.55;;;3.95;;
55575;SDS011;41437;45.478;9.116;2022-09-23T08:54:35;10.82;;;3.85;;
55575;SDS011;41437;45.478;9.116;2022-09-23T08:57:41;7.07;;;3.58;;
55575;SDS011;41437;45.478;9.116;2022-09-23T09:00:49;7.50;;;3.10;;
55575;SDS011;41437;45.478;9.116;2022-09-23T09:04:00;7.13;;;2.83;;
55575;SDS011;41437;45.478;9.116;2022-09-23T09:07:09;6.93;;;3.38;;
55575;SDS011;41437;45.478;9.116;2022-09-23T09:10:14;9.30;;;3.53;;
55575;SDS011;41437;45.478;9.116;2022-09-23T09:13:23;5.50;;;3.03;;
55575;SDS011;41437;45.478;9.116;2022-09-23T09:16:38;5.50;;;3.17;;
55575;SDS011;41437;45.478;9.116;2022-09-23T09:19:51;7.88;;;3.20;;
55575;SDS011;41437;45.478;9.116;2022-09-23T09:22:55;6.07;;;3.40;;
55575;SDS011;41437;45.478;9.116;2022-09-23T09:25:59;7.65;;;3.33;;
55575;SDS011;41437;45.478;9.116;2022-09-23T09:29:07;10.50;;;3.65;;
55575;SDS011;41437;45.478;9.116;2022-09-23T09:32:15;9.23;;;3.70;;
55575;SDS011;41437;45.478;9.116;2022-09-23T09:35:24;8.25;;;3.05;;
55575;SDS011;41437;45.478;9.116;2022-09-23T09:38:34;6.22;;;3.30;;
55575;SDS011;41437;45.478;9.116;2022-09-23T09:41:35;7.10;;;3.47;;
55575;SDS011;41437;45.478;9.116;2022-09-23T09:44:42;7.20;;;3.67;;
55575;SDS011;41437;45.478;9.116;2022-09-23T09:47:50;6.43;;;3.40;;
55575;SDS011;41437;45.478;9.116;2022-09-23T09:51:15;6.93;;;3.40;;
55575;SDS011;41437;45.478;9.116;2022-09-23T09:54:21;5.95;;;3.88;;
55575;SDS011;41437;45.478;9.116;2022-09-23T09:57:28;10.65;;;3.78;;
55575;SDS011;41437;45.478;9.116;2022-09-23T10:00:39;5.20;;;3.40;;
55575;SDS011;41437;45.478;9.116;2022-09-23T10:03:43;6.20;;;3.17;;
55575;SDS011;41437;45.478;9.116;2022-09-23T10:06:46;6.28;;;3.33;;
55575;SDS011;41437;45.478;9.116;2022-09-23T10:10:12;7.45;;;3.38;;
55575;SDS011;41437;45.478;9.116;2022-09-23T10:13:20;7.63;;;3.50;;
55575;SDS011;41437;45.478;9.116;2022-09-23T10:19:26;8.65;;;4.03;;
55575;SDS011;41437;45.478;9.116;2022-09-23T10:22:30;7.45;;;3.13;;
55575;SDS011;41437;45.478;9.116;2022-09-23T10:25:36;8.43;;;3.70;;
55575;SDS011;41437;45.478;9.116;2022-09-23T10:28:39;7.55;;;4.00;;
55575;SDS011;41437;45.478;9.116;2022-09-23T10:31:45;6.32;;;3.25;;
55575;SDS011;41437;45.478;9.116;2022-09-23T10:34:48;7.18;;;3.58;;
55575;SDS011;41437;45.478;9.116;2022-09-23T10:37:56;8.20;;;3.85;;
55575;SDS011;41437;45.478;9.116;2022-09-23T10:40:59;8.60;;;4.70;;
55575;SDS011;41437;45.478;9.116;2022-09-23T10:44:26;6.95;;;4.65;;
55575;SDS011;41437;45.478;9.116;2022-09-23T10:47:57;6.68;;;3.92;;
55575;SDS011;41437;45.478;9.116;2022-09-23T10:51:11;8.85;;;3.80;;
55575;SDS011;41437;45.478;9.116;2022-09-23T10:54:20;10.57;;;4.70;;
55575;SDS011;41437;45.478;9.116;2022-09-23T10:57:35;8.82;;;4.20;;
55575;SDS011;41437;45.478;9.116;2022-09-23T11:00:50;7.25;;;3.97;;
55575;SDS011;41437;45.478;9.116;2022-09-23T11:04:27;7.15;;;4.13;;
55575;SDS011;41437;45.478;9.116;2022-09-23T11:07:39;8.20;;;4.22;;
55575;SDS011;41437;45.478;9.116;2022-09-23T11:10:54;9.68;;;4.75;;
55575;SDS011;41437;45.478;9.116;2022-09-23T11:14:15;7.65;;;3.83;;
55575;SDS011;41437;45.478;9.116;2022-09-23T11:17:35;6.95;;;3.63;;
55575;SDS011;41437;45.478;9.116;2022-09-23T11:21:03;8.80;;;5.05;;
55575;SDS011;41437;45.478;9.116;2022-09-23T11:24:23;9.75;;;5.40;;
55575;SDS011;41437;45.478;9.116;2022-09-23T11:27:53;8.55;;;6.10;;
55575;SDS011;41437;45.478;9.116;2022-09-23T11:31:13;9.57;;;6.90;;
55575;SDS011;41437;45.478;9.116;2022-09-23T11:34:32;7.82;;;5.80;;
55575;SDS011;41437;45.478;9.116;2022-09-23T11:37:46;9.35;;;6.65;;
55575;SDS011;41437;45.478;9.116;2022-09-23T11:40:51;10.30;;;6.68;;
55575;SDS011;41437;45.478;9.116;2022-09-23T11:44:01;12.20;;;6.18;;
55575;SDS011;41437;45.478;9.116;2022-09-23T11:47:08;8.07;;;4.82;;
55575;SDS011;41437;45.478;9.116;2022-09-23T11:50:16;9.43;;;4.90;;
55575;SDS011;41437;45.478;9.116;2022-09-23T11:53:28;9.15;;;5.30;;
55575;SDS011;41437;45.478;9.116;2022-09-23T11:56:37;7.03;;;4.80;;
55575;SDS011;41437;45.478;9.116;2022-09-23T11:59:44;8.60;;;5.60;;
55575;SDS011;41437;45.478;9.116;2022-09-23T12:02:53;8.30;;;5.68;;
55575;SDS011;41437;45.478;9.116;2022-09-23T12:06:04;9.60;;;5.18;;
55575;SDS011;41437;45.478;9.116;2022-09-23T12:09:12;11.45;;;5.88;;
55575;SDS011;41437;45.478;9.116;2022-09-23T12:12:20;10.27;;;6.07;;
55575;SDS011;41437;45.478;9.116;2022-09-23T12:15:30;7.55;;;5.65;;
55575;SDS011;41437;45.478;9.116;2022-09-23T12:18:46;11.20;;;5.40;;
55575;SDS011;41437;45.478;9.116;2022-09-23T12:25:26;9.88;;;6.18;;
55575;SDS011;41437;45.478;9.116;2022-09-23T12:28:36;11.07;;;6.82;;
55575;SDS011;41437;45.478;9.116;2022-09-23T12:31:43;8.82;;;6.60;;
55575;SDS011;41437;45.478;9.116;2022-09-23T12:34:46;9.05;;;5.68;;
55575;SDS011;41437;45.478;9.116;2022-09-23T12:37:51;10.50;;;5.60;;
55575;SDS011;41437;45.478;9.116;2022-09-23T12:40:56;6.75;;;4.88;;
55575;SDS011;41437;45.478;9.116;2022-09-23T12:44:11;10.38;;;6.35;;
55575;SDS011;41437;45.478;9.116;2022-09-23T12:50:52;10.90;;;5.85;;
55575;SDS011;41437;45.478;9.116;2022-09-23T12:54:22;9.18;;;6.18;;
55575;SDS011;41437;45.478;9.116;2022-09-23T12:57:40;12.68;;;6.10;;
55575;SDS011;41437;45.478;9.116;2022-09-23T13:00:42;11.60;;;6.40;;
55575;SDS011;41437;45.478;9.116;2022-09-23T13:07:49;9.98;;;5.45;;
55575;SDS011;41437;45.478;9.116;2022-09-23T13:10:51;9.75;;;5.10;;
55575;SDS011;41437;45.478;9.116;2022-09-23T13:13:57;8.73;;;5.00;;
55575;SDS011;41437;45.478;9.116;2022-09-23T13:17:02;9.38;;;5.40;;
55575;SDS011;41437;45.478;9.116;2022-09-23T13:20:15;8.52;;;5.00;;
55575;SDS011;41437;45.478;9.116;2022-09-23T13:23:33;8.07;;;4.80;;
55575;SDS011;41437;45.478;9.116;2022-09-23T13:26:36;6.80;;;5.00;;
55575;SDS011;41437;45.478;9.116;2022-09-23T13:29:40;7.75;;;4.68;;
55575;SDS011;41437;45.478;9.116;2022-09-23T13:32:45;8.23;;;4.45;;
55575;SDS011;41437;45.478;9.116;2022-09-23T13:35:51;7.72;;;5.82;;
55575;SDS011;41437;45.478;9.116;2022-09-23T13:39:12;10.75;;;5.30;;
55575;SDS011;41437;45.478;9.116;2022-09-23T13:42:16;10.60;;;5.13;;
55575;SDS011;41437;45.478;9.116;2022-09-23T13:45:28;10.20;;;5.72;;
55575;SDS011;41437;45.478;9.116;2022-09-23T13:48:31;8.43;;;6.00;;
55575;SDS011;41437;45.478;9.116;2022-09-23T13:51:33;7.00;;;4.72;;
55575;SDS011;41437;45.478;9.116;2022-09-23T13:54:44;10.23;;;5.75;;
55575;SDS011;41437;45.478;9.116;2022-09-23T13:57:55;8.68;;;5.43;;
55575;SDS011;41437;45.478;9.116;2022-09-23T14:00:59;9.80;;;5.07;;
55575;SDS011;41437;45.478;9.116;2022-09-23T14:04:03;10.18;;;5.18;;
55575;SDS011;41437;45.478;9.116;2022-09-23T14:07:05;14.25;;;6.45;;
55575;SDS011;41437;45.478;9.116;2022-09-23T14:10:13;10.70;;;6.18;;
55575;SDS011;41437;45.478;9.116;2022-09-23T14:13:19;10.40;;;6.55;;
55575;SDS011;41437;45.478;9.116;2022-09-23T14:16:26;8.25;;;5.25;;
55575;SDS011;41437;45.478;9.116;2022-09-23T14:19:28;8.85;;;5.97;;
55575;SDS011;41437;45.478;9.116;2022-09-23T14:22:30;10.55;;;6.55;;
55575;SDS011;41437;45.478;9.116;2022-09-23T14:25:34;8.10;;;5.93;;
55575;SDS011;41437;45.478;9.116;2022-09-23T14:28:37;11.07;;;5.72;;
55575;SDS011;41437;45.478;9.116;2022-09-23T14:31:40;7.13;;;4.97;;
55575;SDS011;41437;45.478;9.116;2022-09-23T14:34:44;11.23;;;5.63;;
55575;SDS011;41437;45.478;9.116;2022-09-23T14:37:47;9.60;;;5.40;;
55575;SDS011;41437;45.478;9.116;2022-09-23T14:41:14;7.05;;;5.00;;
55575;SDS011;41437;45.478;9.116;2022-09-23T14:44:21;11.90;;;5.22;;
55575;SDS011;41437;45.478;9.116;2022-09-23T14:47:27;7.00;;;4.07;;
55575;SDS011;41437;45.478;9.116;2022-09-23T14:50:30;11.27;;;5.10;;
55575;SDS011;41437;45.478;9.116;2022-09-23T14:53:46;12.55;;;5.18;;
55575;SDS011;41437;45.478;9.116;2022-09-23T14:56:48;9.70;;;5.05;;
55575;SDS011;41437;45.478;9.116;2022-09-23T14:59:50;8.25;;;4.78;;
55575;SDS011;41437;45.478;9.116;2022-09-23T15:02:57;8.05;;;4.70;;
55575;SDS011;41437;45.478;9.116;2022-09-23T15:06:03;7.68;;;4.55;;
55575;SDS011;41437;45.478;9.116;2022-09-23T15:09:29;6.53;;;4.13;;
55575;SDS011;41437;45.478;9.116;2022-09-23T15:12:33;6.65;;;3.78;;
55575;SDS011;41437;45.478;9.116;2022-09-23T15:15:36;8.15;;;3.97;;
55575;SDS011;41437;45.478;9.116;2022-09-23T15:18:40;6.15;;;3.78;;
55575;SDS011;41437;45.478;9.116;2022-09-23T15:21:45;8.23;;;4.40;;
55575;SDS011;41437;45.478;9.116;2022-09-23T15:24:47;10.35;;;4.40;;
55575;SDS011;41437;45.478;9.116;2022-09-23T15:27:55;7.72;;;4.60;;
55575;SDS011;41437;45.478;9.116;2022-09-23T15:30:59;8.27;;;4.53;;
55575;SDS011;41437;45.478;9.116;2022-09-23T15:34:02;9.43;;;4.60;;
55575;SDS011;41437;45.478;9.116;2022-09-23T15:37:04;9.48;;;5.00;;
55575;SDS011;41437;45.478;9.116;2022-09-23T15:40:08;6.88;;;3.80;;
55575;SDS011;41437;45.478;9.116;2022-09-23T15:43:18;8.38;;;5.45;;
55575;SDS011;41437;45.478;9.116;2022-09-23T15:46:30;10.40;;;4.50;;
55575;SDS011;41437;45.478;9.116;2022-09-23T15:49:34;9.07;;;4.60;;
55575;SDS011;41437;45.478;9.116;2022-09-23T15:52:38;10.95;;;5.00;;
55575;SDS011;41437;45.478;9.116;2022-09-23T15:55:42;10.38;;;4.93;;
55575;SDS011;41437;45.478;9.116;2022-09-23T15:58:44;9.55;;;4.90;;
55575;SDS011;41437;45.478;9.116;2022-09-23T16:01:46;10.25;;;4.90;;
55575;SDS011;41437;45.478;9.116;2022-09-23T16:05:01;9.15;;;4.68;;
55575;SDS011;41437;45.478;9.116;2022-09-23T16:08:07;12.07;;;4.80;;
55575;SDS011;41437;45.478;9.116;2022-09-23T16:14:15;11.23;;;5.20;;
55575;SDS011;41437;45.478;9.116;2022-09-23T16:17:18;7.78;;;4.80;;
55575;SDS011;41437;45.478;9.116;2022-09-23T16:20:20;10.15;;;4.60;;
55575;SDS011;41437;45.478;9.116;2022-09-23T16:26:33;8.77;;;4.43;;
55575;SDS011;41437;45.478;9.116;2022-09-23T16:29:39;7.82;;;4.13;;
55575;SDS011;41437;45.478;9.116;2022-09-23T16:32:41;8.85;;;4.00;;
55575;SDS011;41437;45.478;9.116;2022-09-23T16:35:46;9.27;;;3.85;;
55575;SDS011;41437;45.478;9.116;2022-09-23T16:38:49;5.95;;;3.75;;
55575;SDS011;41437;45.478;9.116;2022-09-23T16:41:50;9.70;;;4.30;;
55575;SDS011;41437;45.478;9.116;2022-09-23T16:44:52;6.22;;;3.80;;
55575;SDS011;41437;45.478;9.116;2022-09-23T16:47:53;11.20;;;3.60;;
55575;SDS011;41437;45.478;9.116;2022-09-23T16:50:57;7.63;;;3.55;;
55575;SDS011;41437;45.478;9.116;2022-09-23T16:54:04;7.93;;;3.50;;
55575;SDS011;41437;45.478;9.116;2022-09-23T16:57:09;7.70;;;3.22;;
55575;SDS011;41437;45.478;9.116;2022-09-23T17:00:13;10.05;;;3.63;;
55575;SDS011;41437;45.478;9.116;2022-09-23T17:03:32;6.47;;;3.13;;
55575;SDS011;41437;45.478;9.116;2022-09-23T17:06:42;6.88;;;3.15;;
55575;SDS011;41437;45.478;9.116;2022-09-23T17:09:45;9.27;;;3.47;;
55575;SDS011;41437;45.478;9.116;2022-09-23T17:12:47;11.48;;;3.58;;
55575;SDS011;41437;45.478;9.116;2022-09-23T17:15:49;8.13;;;3.17;;
55575;SDS011;41437;45.478;9.116;2022-09-23T17:18:51;7.95;;;3.60;;
55575;SDS011;41437;45.478;9.116;2022-09-23T17:24:57;8.25;;;3.42;;
55575;SDS011;41437;45.478;9.116;2022-09-23T17:28:00;13.15;;;3.58;;
55575;SDS011;41437;45.478;9.116;2022-09-23T17:31:03;9.48;;;3.38;;
55575;SDS011;41437;45.478;9.116;2022-09-23T17:34:06;12.05;;;3.40;;
55575;SDS011;41437;45.478;9.116;2022-09-23T17:37:09;7.88;;;2.92;;
55575;SDS011;41437;45.478;9.116;2022-09-23T17:40:10;10.25;;;3.20;;
55575;SDS011;41437;45.478;9.116;2022-09-23T17:43:12;8.10;;;3.28;;
55575;SDS011;41437;45.478;9.116;2022-09-23T17:46:14;7.25;;;3.42;;
55575;SDS011;41437;45.478;9.116;2022-09-23T17:49:17;7.07;;;3.60;;
55575;SDS011;41437;45.478;9.116;2022-09-23T17:52:20;11.85;;;3.65;;
55575;SDS011;41437;45.478;9.116;2022-09-23T17:55:22;6.72;;;3.67;;
55575;SDS011;41437;45.478;9.116;2022-09-23T17:58:24;11.13;;;3.70;;
55575;SDS011;41437;45.478;9.116;2022-09-23T18:01:26;8.77;;;3.90;;
55575;SDS011;41437;45.478;9.116;2022-09-23T18:04:28;11.02;;;3.80;;
55575;SDS011;41437;45.478;9.116;2022-09-23T18:07:31;10.23;;;3.97;;
55575;SDS011;41437;45.478;9.116;2022-09-23T18:10:33;7.63;;;3.42;;
55575;SDS011;41437;45.478;9.116;2022-09-23T18:13:35;7.25;;;3.28;;
55575;SDS011;41437;45.478;9.116;2022-09-23T18:16:38;8.02;;;3.80;;
55575;SDS011;41437;45.478;9.116;2022-09-23T18:19:41;8.43;;;4.53;;
55575;SDS011;41437;45.478;9.116;2022-09-23T18:22:46;11.75;;;4.38;;
55575;SDS011;41437;45.478;9.116;2022-09-23T18:25:48;9.70;;;4.40;;
55575;SDS011;41437;45.478;9.116;2022-09-23T18:28:50;11.15;;;4.75;;
55575;SDS011;41437;45.478;9.116;2022-09-23T18:31:54;7.07;;;3.55;;
55575;SDS011;41437;45.478;9.116;2022-09-23T18:38:00;9.40;;;4.00;;
55575;SDS011;41437;45.478;9.116;2022-09-23T18:41:02;13.13;;;3.87;;
55575;SDS011;41437;45.478;9.116;2022-09-23T18:44:04;9.35;;;4.43;;
55575;SDS011;41437;45.478;9.116;2022-09-23T18:47:06;9.02;;;3.88;;
55575;SDS011;41437;45.478;9.116;2022-09-23T18:50:28;8.80;;;4.32;;
55575;SDS011;41437;45.478;9.116;2022-09-23T18:53:42;10.77;;;5.90;;
55575;SDS011;41437;45.478;9.116;2022-09-23T18:56:46;10.13;;;5.18;;
55575;SDS011;41437;45.478;9.116;2022-09-23T18:59:48;11.75;;;4.65;;
55575;SDS011;41437;45.478;9.116;2022-09-23T19:02:50;11.00;;;4.18;;
55575;SDS011;41437;45.478;9.116;2022-09-23T19:05:52;7.55;;;3.70;;
55575;SDS011;41437;45.478;9.116;2022-09-23T19:08:55;7.00;;;3.67;;
55575;SDS011;41437;45.478;9.116;2022-09-23T19:11:56;10.10;;;4.40;;
55575;SDS011;41437;45.478;9.116;2022-09-23T19:14:58;9.60;;;3.83;;
55575;SDS011;41437;45.478;9.116;2022-09-23T19:17:59;11.13;;;4.20;;